createdAt,value
2023-04-04T00:04:42.571Z,96.63
2023-04-04T00:09:44.116Z,96.40
2023-04-04T00:14:45.673Z,97.34
2023-04-04T00:19:47.269Z,97.23
2023-04-04T00:24:49.043Z,97.76
2023-04-04T00:29:50.575Z,98.34
2023-04-04T00:34:53.601Z,98.73
2023-04-04T00:39:55.243Z,98.72
2023-04-04T00:44:56.795Z,98.79
2023-04-04T00:49:58.408Z,99.19
2023-04-04T00:55:00.518Z,100.00
2023-04-04T01:00:05.150Z,100.00
2023-04-04T01:05:08.318Z,100.00
2023-04-04T01:10:11.466Z,100.00
2023-04-04T01:15:13.024Z,100.00
2023-04-04T01:20:16.127Z,100.00
2023-04-04T01:25:19.245Z,100.00
2023-04-04T01:30:20.912Z,100.00
2023-04-04T01:35:34.528Z,100.00
2023-04-04T01:40:38.366Z,100.00
2023-04-04T01:45:40.793Z,100.00
2023-04-04T01:50:42.617Z,100.00
2023-04-04T01:55:44.767Z,100.00
2023-04-04T02:00:46.373Z,100.00
2023-04-04T02:05:48.622Z,100.00
2023-04-04T02:10:50.355Z,100.00
2023-04-04T02:15:52.350Z,100.00
2023-04-04T02:20:57.685Z,100.00
2023-04-04T02:25:59.360Z,100.00
2023-04-04T02:31:04.614Z,100.00
2023-04-04T02:36:06.382Z,100.00
2023-04-04T02:41:07.947Z,100.00
2023-04-04T02:46:20.556Z,100.00
2023-04-04T02:51:23.385Z,100.00
2023-04-04T02:56:24.908Z,100.00
2023-04-04T03:01:26.527Z,100.00
2023-04-04T03:06:31.898Z,100.00
2023-04-04T03:11:33.453Z,100.00
2023-04-04T03:16:34.993Z,100.00
2023-04-04T03:21:36.789Z,100.00
2023-04-04T03:26:38.353Z,100.00
2023-04-04T03:31:40.083Z,100.00
2023-04-04T03:36:41.606Z,100.00
2023-04-04T03:41:43.069Z,100.00
2023-04-04T03:46:44.551Z,100.00
2023-04-04T03:51:46.088Z,100.00
2023-04-04T03:56:48.082Z,100.00
2023-04-04T04:01:49.621Z,100.00
2023-04-04T04:06:51.301Z,100.00
2023-04-04T04:11:52.891Z,99.87
2023-04-04T04:16:54.423Z,99.08
2023-04-04T04:21:56.224Z,99.44
2023-04-04T04:26:57.770Z,98.97
2023-04-04T04:31:59.319Z,99.53
2023-04-04T04:37:00.890Z,100.00
2023-04-04T04:42:03.148Z,100.00
2023-04-04T04:47:04.760Z,100.00
2023-04-04T04:52:06.736Z,100.00
2023-04-04T04:57:08.310Z,100.00
2023-04-04T05:02:09.854Z,100.00
2023-04-04T05:07:12.464Z,100.00
2023-04-04T05:12:14.014Z,100.00
2023-04-04T05:17:15.626Z,100.00
2023-04-04T05:22:17.182Z,100.00
2023-04-04T05:27:18.642Z,100.00
2023-04-04T05:32:25.623Z,100.00
2023-04-04T05:37:27.772Z,100.00
2023-04-04T05:42:29.524Z,100.00
2023-04-04T05:47:31.287Z,100.00
2023-04-04T05:52:32.850Z,100.00
2023-04-04T05:57:35.789Z,100.00
2023-04-04T06:02:37.422Z,100.00
2023-04-04T06:07:39.099Z,100.00
2023-04-04T06:12:41.083Z,100.00
2023-04-04T06:17:42.736Z,100.00
2023-04-04T06:22:44.210Z,100.00
2023-04-04T06:27:45.715Z,100.00
2023-04-04T06:32:47.998Z,100.00
2023-04-04T06:37:55.859Z,100.00
2023-04-04T06:42:58.369Z,100.00
2023-04-04T06:48:00.204Z,100.00
2023-04-04T06:53:02.320Z,100.00
2023-04-04T06:58:03.872Z,100.00
2023-04-04T07:03:05.405Z,99.31
2023-04-04T07:08:07.065Z,96.71
2023-04-04T07:13:08.641Z,93.45
2023-04-04T07:18:10.216Z,88.63
2023-04-04T07:23:11.889Z,85.77
2023-04-04T07:28:13.748Z,82.81
2023-04-04T07:33:15.614Z,81.46
2023-04-04T07:38:17.606Z,80.05
2023-04-04T07:43:19.060Z,79.59
2023-04-04T07:48:22.473Z,78.75
2023-04-04T07:53:24.633Z,75.89
2023-04-04T07:58:26.202Z,76.01
2023-04-04T08:03:28.131Z,74.92
2023-04-04T08:08:29.845Z,74.88
2023-04-04T08:13:31.556Z,74.06
2023-04-04T08:18:33.578Z,73.05
2023-04-04T08:23:35.284Z,71.88
2023-04-04T08:28:36.907Z,72.38
2023-04-04T08:33:47.239Z,71.60
2023-04-04T08:38:49.430Z,72.12
2023-04-04T08:43:54.719Z,71.63
2023-04-04T08:48:58.723Z,71.47
2023-04-04T08:54:01.494Z,71.00
2023-04-04T08:59:03.306Z,71.32
2023-04-04T09:04:05.948Z,71.92
2023-04-04T09:09:07.777Z,72.97
2023-04-04T09:14:09.308Z,72.98
2023-04-04T09:19:10.778Z,73.15
2023-04-04T09:24:12.276Z,74.38
2023-04-04T09:29:14.222Z,74.00
2023-04-04T09:34:18.687Z,75.28
2023-04-04T09:39:21.130Z,74.12
2023-04-04T09:44:24.284Z,74.45
2023-04-04T09:49:26.493Z,72.70
2023-04-04T09:54:31.234Z,72.46
2023-04-04T09:59:34.039Z,71.24
2023-04-04T10:04:35.757Z,70.89
2023-04-04T10:09:37.839Z,69.52
2023-04-04T10:14:39.412Z,68.08
2023-04-04T10:19:41.576Z,65.44
2023-04-04T10:24:43.114Z,65.08
2023-04-04T10:29:44.729Z,64.26
2023-04-04T10:34:55.600Z,63.33
2023-04-04T10:40:04.407Z,60.32
2023-04-04T10:45:20.313Z,60.95
2023-04-04T10:50:23.699Z,57.00
2023-04-04T10:55:25.916Z,56.47
2023-04-04T11:00:27.570Z,56.85
2023-04-04T11:05:40.895Z,55.67
2023-04-04T11:10:43.577Z,56.37
2023-04-04T11:15:51.566Z,56.56
2023-04-04T11:20:54.397Z,55.61
2023-04-04T11:25:57.033Z,54.23
2023-04-04T11:31:34.870Z,55.37
2023-04-04T11:36:36.584Z,54.14
2023-04-04T11:41:47.761Z,54.47
2023-04-04T11:47:02.427Z,54.05
2023-04-04T11:52:12.717Z,53.89
2023-04-04T11:57:15.754Z,54.39
2023-04-04T12:02:22.056Z,52.48
2023-04-04T12:07:24.712Z,52.71
2023-04-04T12:12:28.370Z,53.60
2023-04-04T12:17:29.934Z,52.96
2023-04-04T12:22:35.406Z,53.25
2023-04-04T12:27:38.554Z,51.66
2023-04-04T12:32:40.071Z,52.95
2023-04-04T12:38:11.012Z,53.04
2023-04-04T12:43:17.474Z,54.50
2023-04-04T12:48:19.800Z,55.86
2023-04-04T12:53:29.373Z,55.45
2023-04-04T12:58:33.029Z,56.27
2023-04-04T13:03:38.010Z,56.86
2023-04-04T13:08:56.430Z,56.91
2023-04-04T13:14:04.327Z,56.94
2023-04-04T13:19:06.768Z,56.42
2023-04-04T13:24:08.373Z,56.32
2023-04-04T13:29:10.049Z,56.31
2023-04-04T13:34:11.537Z,56.41
2023-04-04T13:39:13.119Z,56.60
2023-04-04T13:44:16.505Z,56.94
2023-04-04T13:49:18.144Z,57.26
2023-04-04T13:54:19.664Z,57.26
2023-04-04T13:59:21.307Z,56.66
2023-04-04T14:04:24.211Z,56.67
2023-04-04T14:09:26.163Z,56.39
2023-04-04T14:14:27.715Z,56.56
2023-04-04T14:19:29.253Z,56.37
2023-04-04T14:24:30.970Z,57.19
2023-04-04T14:29:32.497Z,57.44
2023-04-04T14:34:33.983Z,57.65
2023-04-04T14:39:35.619Z,57.12
2023-04-04T14:44:37.170Z,56.64
2023-04-04T14:49:38.688Z,56.73
2023-04-04T14:54:40.471Z,56.42
2023-04-04T14:59:42.201Z,56.43
2023-04-04T15:04:43.924Z,55.18
2023-04-04T15:09:45.619Z,54.87
2023-04-04T15:14:47.172Z,54.32
2023-04-04T15:19:48.699Z,52.82
2023-04-04T15:24:50.222Z,52.71
2023-04-04T15:29:52.670Z,52.79
2023-04-04T15:34:55.570Z,53.06
2023-04-04T15:39:57.079Z,53.43
2023-04-04T15:44:58.641Z,54.80
2023-04-04T15:50:00.172Z,54.80
2023-04-04T15:55:02.083Z,54.50
2023-04-04T16:00:04.234Z,53.69
2023-04-04T16:05:06.142Z,54.07
2023-04-04T16:10:08.315Z,54.06
2023-04-04T16:15:11.756Z,55.23
2023-04-04T16:20:13.298Z,54.94
2023-04-04T16:25:15.081Z,56.23
2023-04-04T16:30:19.397Z,57.00
2023-04-04T16:35:21.212Z,57.47
2023-04-04T16:40:22.675Z,58.79
2023-04-04T16:45:24.243Z,60.16
2023-04-04T16:50:25.838Z,61.12
2023-04-04T16:55:28.874Z,62.28
2023-04-04T17:00:32.779Z,63.40
2023-04-04T17:05:34.347Z,65.07
2023-04-04T17:10:40.235Z,65.76
2023-04-04T17:15:42.039Z,65.79
2023-04-04T17:20:43.702Z,67.07
2023-04-04T17:25:45.623Z,68.26
2023-04-04T17:30:47.165Z,69.12
2023-04-04T17:35:48.682Z,69.88
2023-04-04T17:40:50.286Z,70.80
2023-04-04T17:45:52.508Z,71.06
2023-04-04T17:50:54.139Z,71.00
2023-04-04T17:55:56.580Z,70.66
2023-04-04T18:00:58.390Z,70.63
2023-04-04T18:06:00.039Z,70.99
2023-04-04T18:11:03.884Z,72.32
2023-04-04T18:16:07.227Z,72.82
2023-04-04T18:21:08.941Z,73.95
2023-04-04T18:26:10.444Z,74.59
2023-04-04T18:31:12.774Z,75.05
2023-04-04T18:36:14.324Z,75.50
2023-04-04T18:41:17.364Z,76.48
2023-04-04T18:46:18.955Z,76.35
2023-04-04T18:51:22.169Z,77.05
2023-04-04T18:56:25.017Z,78.08
2023-04-04T19:01:27.165Z,78.32
2023-04-04T19:06:30.937Z,78.86
2023-04-04T19:11:32.511Z,78.52
2023-04-04T19:16:34.229Z,78.97
2023-04-04T19:21:35.817Z,78.16
2023-04-04T19:26:38.182Z,78.04
2023-04-04T19:31:39.698Z,77.82
2023-04-04T19:36:41.863Z,77.80
2023-04-04T19:41:43.433Z,77.93
2023-04-04T19:46:44.949Z,78.61
2023-04-04T19:51:50.585Z,77.88
2023-04-04T19:57:04.781Z,77.63
2023-04-04T20:02:13.947Z,77.58
2023-04-04T20:07:16.050Z,77.42
2023-04-04T20:12:19.437Z,76.99
2023-04-04T20:17:21.103Z,76.50
2023-04-04T20:22:23.215Z,77.20
2023-04-04T20:27:26.649Z,76.96
2023-04-04T20:32:28.183Z,77.71
2023-04-04T20:37:30.874Z,78.44
2023-04-04T20:42:37.889Z,78.91
2023-04-04T20:47:52.413Z,78.55
2023-04-04T20:52:59.291Z,77.72
2023-04-04T20:58:08.605Z,76.19
2023-04-04T21:03:30.032Z,76.20
2023-04-04T21:08:44.776Z,76.10
2023-04-04T21:13:46.749Z,76.69
2023-04-04T21:18:48.313Z,77.71
2023-04-04T21:24:00.020Z,78.32
2023-04-04T21:29:05.157Z,78.52
2023-04-04T21:34:17.578Z,79.03
2023-04-04T21:39:23.872Z,78.95
2023-04-04T21:44:28.452Z,78.84
2023-04-04T21:49:29.986Z,78.61
2023-04-04T21:54:31.502Z,78.77
2023-04-04T21:59:33.098Z,79.01
2023-04-04T22:04:34.799Z,79.52
2023-04-04T22:09:38.622Z,80.82
2023-04-04T22:14:43.540Z,81.27
2023-04-04T22:19:46.668Z,81.93
2023-04-04T22:24:51.232Z,81.89
2023-04-04T22:29:52.803Z,82.74
2023-04-04T22:34:54.368Z,83.32
2023-04-04T22:39:55.921Z,83.74
2023-04-04T22:44:57.494Z,84.63
2023-04-04T22:50:04.567Z,85.97
2023-04-04T22:55:07.381Z,87.77
2023-04-04T23:00:14.605Z,88.64
2023-04-04T23:05:17.787Z,89.52
2023-04-04T23:10:19.500Z,90.10
2023-04-04T23:15:21.053Z,91.36
2023-04-04T23:20:24.022Z,91.85
2023-04-04T23:25:26.417Z,92.08
2023-04-04T23:30:28.994Z,92.94
2023-04-04T23:35:30.534Z,92.97
2023-04-04T23:40:32.072Z,93.23
2023-04-04T23:45:37.247Z,93.14
2023-04-04T23:50:39.021Z,93.53
2023-04-04T23:55:40.688Z,93.17
